createdAt,value
2022-09-16T00:00:36.010Z,14.00
2022-09-16T00:03:03.657Z,14.00
2022-09-16T00:05:30.784Z,14.00
2022-09-16T00:07:57.791Z,13.90
2022-09-16T00:10:24.698Z,13.90
2022-09-16T00:12:51.826Z,13.90
2022-09-16T00:15:19.175Z,13.90
2022-09-16T00:17:46.104Z,13.90
2022-09-16T00:20:13.120Z,13.90
2022-09-16T00:22:40.000Z,13.90
2022-09-16T00:25:07.261Z,14.00
2022-09-16T00:27:34.145Z,13.90
2022-09-16T00:30:01.092Z,13.90
2022-09-16T00:32:27.928Z,13.90
2022-09-16T00:34:54.815Z,13.80
2022-09-16T00:37:21.735Z,13.80
2022-09-16T00:39:50.617Z,13.90
2022-09-16T00:42:19.273Z,13.90
2022-09-16T00:44:56.567Z,13.80
2022-09-16T00:47:31.914Z,13.80
2022-09-16T00:50:06.857Z,13.70
2022-09-16T00:52:34.094Z,13.70
2022-09-16T00:55:04.045Z,13.70
2022-09-16T00:57:31.104Z,13.70
2022-09-16T00:59:59.232Z,13.70
2022-09-16T01:02:27.118Z,13.70
2022-09-16T01:05:06.310Z,13.70
2022-09-16T01:07:51.128Z,13.80
2022-09-16T01:10:20.953Z,13.80
2022-09-16T01:12:55.515Z,13.80
2022-09-16T01:15:29.778Z,13.80
2022-09-16T01:18:07.134Z,13.70
2022-09-16T01:21:04.433Z,13.60
2022-09-16T01:23:50.151Z,13.60
2022-09-16T01:26:31.933Z,13.60
2022-09-16T01:29:21.652Z,13.50
2022-09-16T01:32:09.057Z,13.50
2022-09-16T01:35:14.471Z,13.50
2022-09-16T01:37:52.832Z,13.40
2022-09-16T01:40:24.519Z,13.40
2022-09-16T01:43:25.870Z,13.40
2022-09-16T01:46:07.478Z,13.40
2022-09-16T01:48:42.813Z,13.50
2022-09-16T01:51:35.925Z,13.40
2022-09-16T01:54:08.505Z,13.40
2022-09-16T01:57:07.869Z,13.40
2022-09-16T01:59:39.019Z,13.30
2022-09-16T02:02:31.990Z,13.30
2022-09-16T02:05:02.774Z,13.30
2022-09-16T02:07:36.414Z,13.30
2022-09-16T02:10:40.775Z,13.30
2022-09-16T02:13:33.909Z,13.20
2022-09-16T02:16:14.466Z,13.30
2022-09-16T02:18:44.950Z,13.20
2022-09-16T02:21:15.958Z,13.20
2022-09-16T02:23:48.583Z,13.20
2022-09-16T02:26:20.035Z,13.10
2022-09-16T02:28:48.588Z,13.10
2022-09-16T02:31:17.933Z,13.10
2022-09-16T02:34:07.054Z,13.10
2022-09-16T02:36:35.966Z,13.10
2022-09-16T02:39:09.479Z,13.00
2022-09-16T02:41:39.483Z,13.10
2022-09-16T02:44:07.759Z,13.10
2022-09-16T02:47:03.689Z,13.10
2022-09-16T02:49:54.554Z,13.00
2022-09-16T02:52:32.878Z,13.00
2022-09-16T02:55:06.350Z,12.90
2022-09-16T02:57:33.524Z,12.90
2022-09-16T03:00:00.604Z,12.80
2022-09-16T03:02:27.685Z,12.80
2022-09-16T03:04:54.683Z,12.90
2022-09-16T03:07:21.663Z,12.80
2022-09-16T03:09:50.247Z,12.70
2022-09-16T03:12:26.060Z,12.70
2022-09-16T03:15:03.816Z,12.60
2022-09-16T03:17:41.376Z,12.50
2022-09-16T03:20:12.132Z,12.40
2022-09-16T03:22:44.888Z,12.40
2022-09-16T03:25:36.730Z,12.40
2022-09-16T03:28:13.526Z,12.40
2022-09-16T03:30:55.730Z,12.40
2022-09-16T03:33:39.911Z,12.30
2022-09-16T03:36:09.517Z,12.30
2022-09-16T03:38:38.666Z,12.40
2022-09-16T03:41:07.705Z,12.20
2022-09-16T03:43:34.601Z,12.20
2022-09-16T03:46:01.568Z,12.10
2022-09-16T03:48:28.718Z,12.10
2022-09-16T03:50:55.564Z,12.10
2022-09-16T03:53:22.446Z,12.10
2022-09-16T03:55:50.387Z,12.10
2022-09-16T03:58:17.271Z,12.00
2022-09-16T04:00:48.177Z,12.00
2022-09-16T04:03:15.047Z,12.00
2022-09-16T04:05:41.947Z,12.00
2022-09-16T04:08:08.792Z,12.00
2022-09-16T04:10:35.700Z,12.00
2022-09-16T04:13:02.762Z,11.90
2022-09-16T04:15:29.584Z,11.90
2022-09-16T04:17:56.859Z,11.80
2022-09-16T04:20:24.034Z,11.80
2022-09-16T04:22:50.941Z,11.80
2022-09-16T04:25:17.919Z,11.80
2022-09-16T04:27:44.777Z,11.80
2022-09-16T04:30:12.456Z,11.80
2022-09-16T04:32:39.331Z,11.80
2022-09-16T04:35:06.719Z,11.80
2022-09-16T04:37:34.153Z,11.80
2022-09-16T04:40:04.764Z,11.80
2022-09-16T04:42:32.112Z,11.80
2022-09-16T04:47:26.317Z,11.80
2022-09-16T04:49:53.167Z,11.90
2022-09-16T04:52:19.977Z,11.90
2022-09-16T04:54:47.006Z,11.80
2022-09-16T04:57:13.858Z,11.90
2022-09-16T04:59:40.736Z,11.90
2022-09-16T05:02:07.686Z,11.80
2022-09-16T05:04:34.582Z,11.90
2022-09-16T05:07:01.414Z,11.90
2022-09-16T05:09:28.520Z,11.90
2022-09-16T05:11:55.377Z,11.90
2022-09-16T05:14:22.187Z,11.90
2022-09-16T05:16:49.307Z,11.90
2022-09-16T05:19:16.182Z,12.00
2022-09-16T05:21:43.416Z,12.00
2022-09-16T05:24:12.859Z,12.10
2022-09-16T05:26:42.182Z,12.10
2022-09-16T05:29:12.904Z,12.10
2022-09-16T05:31:42.203Z,12.20
2022-09-16T05:34:17.522Z,12.20
2022-09-16T05:36:47.554Z,12.20
2022-09-16T05:39:26.223Z,12.30
2022-09-16T05:41:56.530Z,12.40
2022-09-16T05:44:24.085Z,12.30
2022-09-16T05:46:51.150Z,12.40
2022-09-16T05:49:21.254Z,12.50
2022-09-16T05:51:49.090Z,12.50
2022-09-16T05:54:18.597Z,12.60
2022-09-16T05:56:46.437Z,12.70
2022-09-16T05:59:14.680Z,12.80
2022-09-16T06:01:42.266Z,12.80
2022-09-16T06:04:12.738Z,12.90
2022-09-16T06:06:41.884Z,13.00
2022-09-16T06:09:15.003Z,13.10
2022-09-16T06:11:44.716Z,13.30
2022-09-16T06:14:13.253Z,13.50
2022-09-16T06:16:40.695Z,13.60
2022-09-16T06:19:11.179Z,13.80
2022-09-16T06:21:39.045Z,13.60
2022-09-16T06:24:10.130Z,13.70
2022-09-16T06:26:40.266Z,13.80
2022-09-16T06:29:07.989Z,13.70
2022-09-16T06:31:36.303Z,13.60
2022-09-16T06:34:03.624Z,13.60
2022-09-16T06:36:44.651Z,13.80
2022-09-16T06:39:13.991Z,14.10
2022-09-16T06:41:40.950Z,14.30
2022-09-16T06:44:08.219Z,14.40
2022-09-16T06:46:35.153Z,14.50
2022-09-16T06:49:05.855Z,14.70
2022-09-16T06:51:35.174Z,14.90
2022-09-16T06:54:04.740Z,14.80
2022-09-16T06:56:31.865Z,14.70
2022-09-16T06:58:58.830Z,15.00
2022-09-16T07:01:29.334Z,14.80
2022-09-16T07:03:58.455Z,14.70
2022-09-16T07:09:17.066Z,15.00
2022-09-16T07:11:43.987Z,15.00
2022-09-16T07:14:11.038Z,14.70
2022-09-16T07:16:37.955Z,14.80
2022-09-16T07:19:05.636Z,15.00
2022-09-16T07:21:32.884Z,14.90
2022-09-16T07:24:02.005Z,14.90
2022-09-16T07:26:31.270Z,15.10
2022-09-16T07:29:02.179Z,15.00
2022-09-16T07:31:32.909Z,15.00
2022-09-16T07:34:04.875Z,15.40
2022-09-16T07:36:41.028Z,15.20
2022-09-16T07:39:08.486Z,15.30
2022-09-16T07:41:38.344Z,15.70
2022-09-16T07:44:07.835Z,15.70
2022-09-16T07:46:36.368Z,15.40
2022-09-16T07:49:06.174Z,15.60
2022-09-16T07:51:33.700Z,15.90
2022-09-16T07:54:04.366Z,16.30
2022-09-16T07:56:34.884Z,16.00
2022-09-16T07:59:04.505Z,16.00
2022-09-16T08:01:31.679Z,15.90
2022-09-16T08:03:59.342Z,15.80
2022-09-16T08:06:28.711Z,15.70
2022-09-16T08:09:10.096Z,15.60
2022-09-16T08:11:46.923Z,15.80
2022-09-16T08:14:13.912Z,15.80
2022-09-16T08:16:40.884Z,15.80
2022-09-16T08:19:07.808Z,15.80
2022-09-16T08:21:34.775Z,16.20
2022-09-16T08:24:01.924Z,16.60
2022-09-16T08:26:29.171Z,16.70
2022-09-16T08:29:08.463Z,16.30
2022-09-16T08:31:37.860Z,16.50
2022-09-16T08:34:05.098Z,16.10
2022-09-16T08:36:33.836Z,16.00
2022-09-16T08:39:00.983Z,16.00
2022-09-16T08:41:37.134Z,15.70
2022-09-16T08:44:13.827Z,15.60
2022-09-16T08:46:53.976Z,15.50
2022-09-16T08:49:26.994Z,15.80
2022-09-16T08:51:55.590Z,15.80
2022-09-16T08:54:31.450Z,15.70
2022-09-16T08:57:04.911Z,15.70
2022-09-16T08:59:39.836Z,15.60
2022-09-16T09:02:28.663Z,15.30
2022-09-16T09:04:56.232Z,15.40
2022-09-16T09:07:43.466Z,15.70
2022-09-16T09:10:29.974Z,15.50
2022-09-16T09:13:17.199Z,15.90
2022-09-16T09:16:14.775Z,16.10
2022-09-16T09:19:04.128Z,16.50
2022-09-16T09:21:39.667Z,16.40
2022-09-16T09:24:31.303Z,16.20
2022-09-16T09:27:24.574Z,16.30
2022-09-16T09:30:13.181Z,16.30
2022-09-16T09:33:10.777Z,16.30
2022-09-16T09:36:14.418Z,16.80
2022-09-16T09:39:09.969Z,16.50
2022-09-16T09:41:58.629Z,16.50
2022-09-16T09:44:46.662Z,16.30
2022-09-16T09:47:22.002Z,15.90
2022-09-16T09:49:56.796Z,15.80
2022-09-16T09:52:33.800Z,15.70
2022-09-16T09:55:16.280Z,16.00
2022-09-16T09:58:11.354Z,16.10
2022-09-16T10:00:38.443Z,16.00
2022-09-16T10:03:15.181Z,16.00
2022-09-16T10:05:42.853Z,16.20
2022-09-16T10:08:25.004Z,16.00
2022-09-16T10:10:55.820Z,15.80
2022-09-16T10:13:24.519Z,15.70
2022-09-16T10:15:55.841Z,16.30
2022-09-16T10:18:32.651Z,17.20
2022-09-16T10:21:10.976Z,17.50
2022-09-16T10:23:39.547Z,17.40
2022-09-16T10:26:28.317Z,17.70
2022-09-16T10:29:12.741Z,18.00
2022-09-16T10:31:42.964Z,17.90
2022-09-16T10:34:29.247Z,18.60
2022-09-16T10:37:19.985Z,17.70
2022-09-16T10:39:55.020Z,17.30
2022-09-16T10:42:25.550Z,17.00
2022-09-16T10:45:02.679Z,16.30
2022-09-16T10:47:32.840Z,16.20
2022-09-16T10:50:04.900Z,16.50
2022-09-16T10:52:40.940Z,16.90
2022-09-16T10:55:30.406Z,16.80
2022-09-16T10:58:09.644Z,16.90
2022-09-16T11:00:56.195Z,17.10
2022-09-16T11:03:32.466Z,16.70
2022-09-16T11:06:14.741Z,16.30
2022-09-16T11:08:57.188Z,15.90
2022-09-16T11:11:42.256Z,16.00
2022-09-16T11:15:06.206Z,15.80
2022-09-16T11:18:12.054Z,15.70
2022-09-16T11:20:51.262Z,15.60
2022-09-16T11:23:35.936Z,15.40
2022-09-16T11:26:12.105Z,15.40
2022-09-16T11:28:57.824Z,15.10
2022-09-16T11:31:24.836Z,15.10
2022-09-16T11:34:14.780Z,15.20
2022-09-16T11:36:46.973Z,15.30
2022-09-16T11:39:34.729Z,15.40
2022-09-16T11:42:15.293Z,15.60
2022-09-16T11:44:52.323Z,15.80
2022-09-16T11:47:46.383Z,15.60
2022-09-16T11:50:22.826Z,15.60
2022-09-16T11:53:15.418Z,16.00
2022-09-16T11:55:56.903Z,16.50
2022-09-16T11:58:47.943Z,17.20
2022-09-16T12:01:23.951Z,17.70
2022-09-16T12:04:06.858Z,18.20
2022-09-16T12:06:59.100Z,18.40
2022-09-16T12:09:41.479Z,18.00
2022-09-16T12:12:13.763Z,18.30
2022-09-16T12:14:53.501Z,19.40
2022-09-16T12:17:28.491Z,20.40
2022-09-16T12:20:06.985Z,20.70
2022-09-16T12:22:37.262Z,20.40
2022-09-16T12:25:13.905Z,19.70
2022-09-16T12:27:52.639Z,19.50
2022-09-16T12:30:23.939Z,18.60
2022-09-16T12:33:00.261Z,17.70
2022-09-16T12:35:33.381Z,17.50
2022-09-16T12:38:01.139Z,16.60
2022-09-16T12:40:34.809Z,16.10
2022-09-16T12:43:04.882Z,15.70
2022-09-16T12:45:52.934Z,15.20
2022-09-16T12:48:42.025Z,15.50
2022-09-16T12:51:19.170Z,16.60
2022-09-16T12:53:55.044Z,17.20
2022-09-16T12:56:46.325Z,17.90
2022-09-16T12:59:42.362Z,18.90
2022-09-16T13:02:22.754Z,19.30
2022-09-16T13:04:53.861Z,19.80
2022-09-16T13:07:27.301Z,19.30
2022-09-16T13:10:04.980Z,18.40
2022-09-16T13:12:41.328Z,18.10
2022-09-16T13:15:30.750Z,17.90
2022-09-16T13:18:14.827Z,18.20
2022-09-16T13:20:49.089Z,17.40
2022-09-16T13:23:28.332Z,17.40
2022-09-16T13:25:55.295Z,17.30
2022-09-16T13:28:41.974Z,17.00
2022-09-16T13:31:14.543Z,17.00
2022-09-16T13:33:46.176Z,17.00
2022-09-16T13:36:25.590Z,16.70
2022-09-16T13:39:00.996Z,16.50
2022-09-16T13:41:45.636Z,16.40
2022-09-16T13:44:41.761Z,16.30
2022-09-16T13:47:11.661Z,16.10
2022-09-16T13:49:47.625Z,16.30
2022-09-16T13:52:35.472Z,17.10
2022-09-16T13:55:11.111Z,17.70
2022-09-16T13:58:15.096Z,18.60
2022-09-16T14:00:58.668Z,18.40
2022-09-16T14:03:54.582Z,18.40
2022-09-16T14:06:49.225Z,18.90
2022-09-16T14:09:27.073Z,18.40
2022-09-16T14:12:03.965Z,18.50
2022-09-16T14:14:47.010Z,18.60
2022-09-16T14:17:25.386Z,18.70
2022-09-16T14:19:57.658Z,18.50
2022-09-16T14:22:27.512Z,18.40
2022-09-16T14:25:05.909Z,18.00
2022-09-16T14:27:40.457Z,17.60
2022-09-16T14:30:15.873Z,17.60
2022-09-16T14:32:42.985Z,17.30
2022-09-16T14:35:20.933Z,17.20
2022-09-16T14:37:52.521Z,16.80
2022-09-16T14:40:22.756Z,16.70
2022-09-16T14:42:55.041Z,16.60
2022-09-16T14:45:22.397Z,16.60
2022-09-16T14:47:52.359Z,16.50
2022-09-16T14:50:41.678Z,16.40
2022-09-16T14:53:35.788Z,16.20
2022-09-16T14:56:04.959Z,16.10
2022-09-16T14:58:33.639Z,15.90
2022-09-16T15:01:26.143Z,15.80
2022-09-16T15:04:09.519Z,15.70
2022-09-16T15:06:40.634Z,15.60
2022-09-16T15:09:14.530Z,15.50
2022-09-16T15:11:53.248Z,15.40
2022-09-16T15:14:20.749Z,15.10
2022-09-16T15:16:52.805Z,14.90
2022-09-16T15:19:30.083Z,14.40
2022-09-16T15:21:57.877Z,14.60
2022-09-16T15:24:29.074Z,14.90
2022-09-16T15:26:57.387Z,15.60
2022-09-16T15:29:24.847Z,16.10
2022-09-16T15:31:52.612Z,16.00
2022-09-16T15:34:21.196Z,15.70
2022-09-16T15:36:50.957Z,15.90
2022-09-16T15:39:28.526Z,16.10
2022-09-16T15:42:12.685Z,16.00
2022-09-16T15:45:14.036Z,15.90
2022-09-16T15:47:55.006Z,15.90
2022-09-16T15:50:23.440Z,15.90
2022-09-16T15:53:16.198Z,15.60
2022-09-16T15:56:01.442Z,15.30
2022-09-16T15:58:47.363Z,15.10
2022-09-16T16:01:41.681Z,14.90
2022-09-16T16:04:12.304Z,15.00
2022-09-16T16:06:54.321Z,15.00
2022-09-16T16:09:29.734Z,14.90
2022-09-16T16:12:08.176Z,14.80
2022-09-16T16:14:36.095Z,14.60
2022-09-16T16:17:14.147Z,14.30
2022-09-16T16:19:45.966Z,14.00
2022-09-16T16:22:14.292Z,13.90
2022-09-16T16:24:41.860Z,14.00
2022-09-16T16:27:10.270Z,13.80
2022-09-16T16:29:39.098Z,13.80
2022-09-16T16:32:12.009Z,13.60
2022-09-16T16:34:41.463Z,13.70
2022-09-16T16:37:19.171Z,13.50
2022-09-16T16:39:55.607Z,13.40
2022-09-16T16:42:23.257Z,13.40
2022-09-16T16:44:50.474Z,13.20
2022-09-16T16:47:17.679Z,13.10
2022-09-16T16:49:48.297Z,13.10
2022-09-16T16:52:17.678Z,13.00
2022-09-16T16:54:44.533Z,12.90
2022-09-16T16:57:11.828Z,12.90
2022-09-16T16:59:38.789Z,12.90
2022-09-16T17:02:06.107Z,12.90
2022-09-16T17:04:33.024Z,12.80
2022-09-16T17:07:24.064Z,12.80
2022-09-16T17:09:46.881Z,12.80
2022-09-16T17:12:13.811Z,12.90
2022-09-16T17:14:42.191Z,12.80
2022-09-16T17:17:09.050Z,12.90
2022-09-16T17:19:35.905Z,12.80
2022-09-16T17:22:03.068Z,12.70
2022-09-16T17:24:29.980Z,12.70
2022-09-16T17:26:57.399Z,12.80
2022-09-16T17:29:24.296Z,12.70
2022-09-16T17:31:51.295Z,12.60
2022-09-16T17:34:18.659Z,12.50
2022-09-16T17:36:46.487Z,12.60
2022-09-16T17:39:21.303Z,12.70
2022-09-16T17:41:49.275Z,12.70
2022-09-16T17:44:17.685Z,12.80
2022-09-16T17:46:45.633Z,12.70
2022-09-16T17:49:18.276Z,12.70
2022-09-16T17:51:45.490Z,12.60
2022-09-16T17:54:12.876Z,12.60
2022-09-16T17:56:40.034Z,12.60
2022-09-16T17:59:07.029Z,12.50
2022-09-16T18:01:34.554Z,12.30
2022-09-16T18:04:02.120Z,12.30
2022-09-16T18:06:32.047Z,12.30
2022-09-16T18:09:04.112Z,12.30
2022-09-16T18:11:31.393Z,12.30
2022-09-16T18:14:02.180Z,12.30
2022-09-16T18:16:30.456Z,12.30
2022-09-16T18:19:00.086Z,12.30
2022-09-16T18:21:27.756Z,12.20
2022-09-16T18:23:59.990Z,12.10
2022-09-16T18:26:28.007Z,12.10
2022-09-16T18:29:12.628Z,12.20
2022-09-16T18:31:47.861Z,12.10
2022-09-16T18:34:16.339Z,12.10
2022-09-16T18:36:43.476Z,12.10
2022-09-16T18:39:16.410Z,12.00
2022-09-16T18:41:45.221Z,11.90
2022-09-16T18:44:19.855Z,11.80
2022-09-16T18:46:47.243Z,11.80
2022-09-16T18:49:16.147Z,11.80
2022-09-16T18:51:50.993Z,11.80
2022-09-16T18:54:30.558Z,11.80
2022-09-16T18:57:00.009Z,11.80
2022-09-16T18:59:29.689Z,11.90
2022-09-16T19:01:59.327Z,11.80
2022-09-16T19:04:32.627Z,11.80
2022-09-16T19:07:07.377Z,11.80
2022-09-16T19:09:36.854Z,11.80
2022-09-16T19:12:04.229Z,11.90
2022-09-16T19:14:31.111Z,12.00
2022-09-16T19:16:58.318Z,12.00
2022-09-16T19:19:25.225Z,12.00
2022-09-16T19:21:52.102Z,12.00
2022-09-16T19:24:21.651Z,12.00
2022-09-16T19:26:50.468Z,12.00
2022-09-16T19:29:18.419Z,12.00
2022-09-16T19:31:47.525Z,11.80
2022-09-16T19:34:15.834Z,11.80
2022-09-16T19:36:43.326Z,11.80
2022-09-16T19:39:12.145Z,11.80
2022-09-16T19:41:40.264Z,11.70
2022-09-16T19:44:11.100Z,11.70
2022-09-16T19:46:39.443Z,11.80
2022-09-16T19:49:08.298Z,11.70
2022-09-16T19:51:35.648Z,11.60
2022-09-16T19:54:03.211Z,11.60
2022-09-16T19:56:32.413Z,11.50
2022-09-16T19:59:00.439Z,11.50
2022-09-16T20:01:30.727Z,11.50
2022-09-16T20:03:58.032Z,11.50
2022-09-16T20:06:27.932Z,11.40
2022-09-16T20:08:57.181Z,11.40
2022-09-16T20:11:26.893Z,11.40
2022-09-16T20:14:00.276Z,11.30
2022-09-16T20:16:30.864Z,11.40
2022-09-16T20:18:58.237Z,11.40
2022-09-16T20:21:27.194Z,11.40
2022-09-16T20:23:54.795Z,11.30
2022-09-16T20:26:22.975Z,11.20
2022-09-16T20:28:55.343Z,11.20
2022-09-16T20:31:28.063Z,11.00
2022-09-16T20:33:56.091Z,11.30
2022-09-16T20:36:24.741Z,10.90
2022-09-16T20:38:52.509Z,10.90
2022-09-16T20:41:23.094Z,11.00
2022-09-16T20:43:51.046Z,10.90
2022-09-16T20:46:21.566Z,11.00
2022-09-16T20:48:49.397Z,11.00
2022-09-16T20:51:19.140Z,11.00
2022-09-16T20:53:52.402Z,10.90
2022-09-16T20:56:19.275Z,11.00
2022-09-16T20:58:47.260Z,11.10
2022-09-16T21:01:33.778Z,11.00
2022-09-16T21:04:06.214Z,11.10
2022-09-16T21:06:34.970Z,11.20
2022-09-16T21:09:05.491Z,11.20
2022-09-16T21:11:33.273Z,11.20
2022-09-16T21:14:02.245Z,11.20
2022-09-16T21:16:31.992Z,11.20
2022-09-16T21:19:01.646Z,11.20
2022-09-16T21:21:29.533Z,11.20
2022-09-16T21:23:58.548Z,11.30
2022-09-16T21:26:26.682Z,11.20
2022-09-16T21:29:01.705Z,11.20
2022-09-16T21:31:30.462Z,11.20
2022-09-16T21:33:58.436Z,11.10
2022-09-16T21:36:28.215Z,11.00
2022-09-16T21:38:55.740Z,11.00
2022-09-16T21:41:24.010Z,11.10
2022-09-16T21:43:56.151Z,11.00
2022-09-16T21:46:26.081Z,11.10
2022-09-16T21:48:56.419Z,11.00
2022-09-16T21:51:23.388Z,11.00
2022-09-16T21:53:50.579Z,10.80
2022-09-16T21:56:22.522Z,10.90
2022-09-16T21:58:53.112Z,10.80
2022-09-16T22:01:22.929Z,10.80
2022-09-16T22:04:01.781Z,10.80
2022-09-16T22:06:29.006Z,10.70
2022-09-16T22:08:59.026Z,10.70
2022-09-16T22:11:27.463Z,10.70
2022-09-16T22:13:55.911Z,10.60
2022-09-16T22:16:29.602Z,10.60
2022-09-16T22:19:01.767Z,10.60
2022-09-16T22:21:31.755Z,10.60
2022-09-16T22:24:00.438Z,10.60
2022-09-16T22:26:29.283Z,10.60
2022-09-16T22:28:56.200Z,10.60
2022-09-16T22:31:26.500Z,10.50
2022-09-16T22:33:54.942Z,10.50
2022-09-16T22:36:24.282Z,10.50
2022-09-16T22:38:54.222Z,10.50
2022-09-16T22:41:22.693Z,10.50
2022-09-16T22:43:51.379Z,10.40
2022-09-16T22:46:24.392Z,10.40
2022-09-16T22:48:52.278Z,10.40
2022-09-16T22:51:20.710Z,10.40
2022-09-16T22:53:48.841Z,10.40
2022-09-16T22:56:29.462Z,10.40
2022-09-16T22:58:57.729Z,10.40
2022-09-16T23:01:27.652Z,10.30
2022-09-16T23:03:56.877Z,10.30
2022-09-16T23:06:25.492Z,10.30
2022-09-16T23:08:53.270Z,10.30
2022-09-16T23:11:23.714Z,10.20
2022-09-16T23:13:52.817Z,10.20
2022-09-16T23:16:27.041Z,10.20
2022-09-16T23:18:57.862Z,10.30
2022-09-16T23:21:25.141Z,10.20
2022-09-16T23:23:54.659Z,10.20
2022-09-16T23:26:24.647Z,10.10
2022-09-16T23:28:56.306Z,10.10
2022-09-16T23:31:28.743Z,10.10
2022-09-16T23:33:56.544Z,10.10
2022-09-16T23:36:24.874Z,10.10
2022-09-16T23:38:52.511Z,10.10
2022-09-16T23:41:23.815Z,10.00
2022-09-16T23:43:50.839Z,10.00
2022-09-16T23:46:20.065Z,10.00
2022-09-16T23:48:47.874Z,10.00
2022-09-16T23:51:14.739Z,10.00
2022-09-16T23:53:45.141Z,10.00
2022-09-16T23:56:14.833Z,10.10
2022-09-16T23:58:42.378Z,10.10
